Time;durP1;ratioP1;P1;durP2;ratioP2;P2;SDS_P1;SDS_P2;PMS_P1;PMS_P2;Temp;Humidity;BMP_temperature;BMP_pressure;BME280_temperature;BME280_humidity;BME280_pressure;Samples;Min_cycle;Max_cycle;Signal;HPM_P1;HPM_P2
2021/12/26 00:00:34;;;;;;;1.77;0.90;;;13.70;36.20;12.70;100703.00;;;;5031388;28;20041;-68
2021/12/26 00:03:22;;;;;;;1.48;0.98;;;13.70;36.20;12.70;100700.00;;;;5035345;28;20055;-68
2021/12/26 00:06:15;;;;;;;1.73;0.90;;;13.70;36.30;12.70;100700.00;;;;5019004;28;20071;-68
2021/12/26 00:09:01;;;;;;;1.15;0.70;;;13.70;36.20;12.70;100691.00;;;;5026365;28;20058;-68
2021/12/26 00:11:47;;;;;;;2.45;0.90;;;13.60;36.10;12.70;100682.00;;;;5043206;28;20044;-68
2021/12/26 00:14:33;;;;;;;1.58;0.82;;;13.70;36.20;12.70;100683.00;;;;5043268;28;20076;-68
2021/12/26 00:17:20;;;;;;;1.08;0.73;;;13.70;36.20;12.70;100685.00;;;;5030573;28;20102;-68
2021/12/26 00:20:07;;;;;;;1.80;0.90;;;13.60;36.10;12.70;100682.00;;;;5045214;28;20478;-68
2021/12/26 00:22:53;;;;;;;1.83;0.83;;;13.60;36.10;12.70;100683.00;;;;5015056;28;20163;-68
2021/12/26 00:25:40;;;;;;;1.10;0.70;;;13.60;36.20;12.70;100680.00;;;;5032396;28;20311;-68
2021/12/26 00:28:26;;;;;;;1.95;0.85;;;13.70;36.20;12.70;100680.00;;;;5033197;28;20130;-68
2021/12/26 00:31:13;;;;;;;1.55;0.90;;;13.60;36.10;12.70;100672.00;;;;5043937;28;20041;-68
2021/12/26 00:33:59;;;;;;;1.02;0.77;;;13.60;36.10;12.70;100665.00;;;;5043437;28;20106;-68
2021/12/26 00:36:46;;;;;;;2.03;1.00;;;13.70;36.20;12.70;100675.00;;;;5009830;28;20098;-68
2021/12/26 00:39:33;;;;;;;2.80;0.85;;;13.70;36.20;12.70;100670.00;;;;5045337;28;20037;-68
2021/12/26 00:42:20;;;;;;;0.80;0.70;;;13.60;36.20;12.70;100665.00;;;;5031547;28;20040;-68
2021/12/26 00:45:06;;;;;;;1.67;1.08;;;13.60;36.20;12.70;100674.00;;;;5048805;28;20352;-68
2021/12/26 00:47:53;;;;;;;1.10;0.70;;;13.60;36.20;12.70;100671.00;;;;5034359;28;20033;-68
2021/12/26 00:50:41;;;;;;;2.10;1.10;;;13.60;36.20;12.70;100661.00;;;;5046798;28;20040;-68
2021/12/26 00:53:28;;;;;;;0.82;0.63;;;13.60;36.20;12.70;100654.00;;;;5035517;28;20478;-68
2021/12/26 00:56:15;;;;;;;1.00;0.80;;;13.60;36.20;12.70;100656.00;;;;5049576;28;20057;-68
2021/12/26 00:59:01;;;;;;;1.33;0.80;;;13.60;36.20;12.70;100655.00;;;;5048855;28;20414;-68
2021/12/26 01:01:47;;;;;;;1.48;0.90;;;13.60;36.30;12.70;100654.00;;;;5028842;28;20036;-69
2021/12/26 01:04:33;;;;;;;3.00;1.15;;;13.60;36.20;12.70;100644.00;;;;5049753;28;20613;-68
2021/12/26 01:08:03;;;;;;;1.45;1.00;;;13.60;36.20;12.70;100644.00;;;;5048721;28;20122;-68
2021/12/26 01:10:51;;;;;;;1.00;0.73;;;13.60;36.20;12.70;100656.00;;;;5048701;28;20097;-68
2021/12/26 01:13:38;;;;;;;1.63;1.00;;;13.60;36.10;12.70;100649.00;;;;5032287;28;20055;-68
2021/12/26 01:16:27;;;;;;;1.65;1.00;;;13.60;36.20;12.70;100656.00;;;;5048939;28;20045;-68
2021/12/26 01:19:15;;;;;;;;;;;13.60;36.20;12.60;100649.00;;;;5022319;28;20048;-68
2021/12/26 01:22:02;;;;;;;1.20;0.95;;;13.60;36.60;12.60;100659.00;;;;5044291;28;19912;-68
2021/12/26 01:24:48;;;;;;;1.65;1.10;;;13.60;36.20;12.60;100655.00;;;;5031584;28;20056;-68
2021/12/26 01:27:35;;;;;;;1.40;0.80;;;13.60;36.20;12.60;100652.00;;;;5046517;28;20029;-68
2021/12/26 01:30:21;;;;;;;2.58;1.08;;;13.60;36.20;12.60;100658.00;;;;5048679;28;20033;-68
2021/12/26 01:33:09;;;;;;;1.10;0.93;;;13.60;36.10;12.60;100646.00;;;;5048308;28;20040;-67
2021/12/26 01:35:56;;;;;;;1.80;1.13;;;13.60;36.10;12.60;100652.00;;;;5014511;28;20052;-68
2021/12/26 01:38:42;;;;;;;1.40;0.88;;;13.60;36.00;12.60;100654.00;;;;5033859;28;20051;-67
2021/12/26 01:41:28;;;;;;;0.82;0.70;;;13.60;36.00;12.60;100654.00;;;;5034595;28;21925;-68
2021/12/26 01:44:15;;;;;;;2.58;1.17;;;13.60;36.00;12.60;100649.00;;;;5049436;28;20049;-68
2021/12/26 01:47:01;;;;;;;1.15;0.82;;;13.60;35.90;12.60;100654.00;;;;5045672;28;20120;-68
2021/12/26 01:49:48;;;;;;;1.38;0.82;;;13.60;35.90;12.60;100645.00;;;;5000667;28;20098;-68
2021/12/26 01:52:34;;;;;;;1.63;1.13;;;13.60;35.90;12.60;100643.00;;;;5047848;28;20053;-68
2021/12/26 01:55:26;;;;;;;1.55;0.88;;;13.60;35.90;12.60;100641.00;;;;5045142;28;20100;-68
2021/12/26 01:58:20;;;;;;;2.70;0.90;;;13.50;35.80;12.60;100634.00;;;;5045851;28;20045;-68
2021/12/26 02:01:09;;;;;;;1.55;0.88;;;13.50;35.80;12.60;100640.00;;;;5049247;28;20091;-68
2021/12/26 02:03:56;;;;;;;2.10;0.93;;;13.60;35.80;12.60;100634.00;;;;5034052;28;20039;-68
2021/12/26 02:06:42;;;;;;;1.67;0.80;;;13.50;35.90;12.60;100632.00;;;;5033628;28;20037;-68
2021/12/26 02:09:28;;;;;;;1.40;0.88;;;13.50;35.90;12.60;100637.00;;;;5036827;28;20048;-68
2021/12/26 02:12:14;;;;;;;1.65;0.95;;;13.50;35.90;12.60;100631.00;;;;5045950;28;20033;-68
2021/12/26 02:15:00;;;;;;;1.63;0.98;;;13.50;35.90;12.60;100636.00;;;;5048421;28;20439;-68
2021/12/26 02:17:47;;;;;;;1.80;1.00;;;13.50;35.90;12.60;100642.00;;;;5047604;28;20490;-68
2021/12/26 02:23:45;;;;;;;1.30;0.85;;;13.50;35.90;12.60;100621.00;;;;5019551;28;20394;-68
2021/12/26 02:29:36;;;;;;;1.42;1.00;;;13.50;36.00;12.50;100624.00;;;;5027409;28;20138;-68
2021/12/26 02:32:22;;;;;;;0.90;0.77;;;13.50;36.00;12.50;100626.00;;;;5045908;28;20029;-68
2021/12/26 02:35:08;;;;;;;1.02;0.85;;;13.50;36.00;12.50;100634.00;;;;5034670;28;20052;-68
2021/12/26 02:37:55;;;;;;;1.52;1.05;;;13.50;36.10;12.50;100623.00;;;;5046539;28;20084;-68
2021/12/26 02:40:42;;;;;;;1.35;0.93;;;13.50;36.00;12.50;100616.00;;;;5047014;28;20049;-68
2021/12/26 02:43:29;;;;;;;1.45;0.82;;;13.50;36.00;12.50;100622.00;;;;5026795;28;20048;-68
2021/12/26 02:46:15;;;;;;;1.30;0.93;;;13.50;36.00;12.50;100619.00;;;;5018762;28;20053;-68
2021/12/26 02:49:02;;;;;;;1.35;0.90;;;13.50;35.90;12.50;100620.00;;;;5047074;28;20122;-68
2021/12/26 02:51:49;;;;;;;2.45;0.80;;;13.50;35.90;12.50;100619.00;;;;5044996;28;20048;-68
2021/12/26 02:54:36;;;;;;;1.70;1.10;;;13.50;36.00;12.50;100619.00;;;;5031542;28;20047;-68
2021/12/26 02:57:22;;;;;;;1.58;1.08;;;13.50;36.00;12.50;100615.00;;;;5045103;28;20441;-67
2021/12/26 03:00:15;;;;;;;1.60;1.25;;;13.50;36.00;12.50;100603.00;;;;5044601;28;20044;-68
2021/12/26 03:03:03;;;;;;;1.30;0.90;;;13.50;35.90;12.50;100603.00;;;;5022465;28;20045;-68
2021/12/26 03:05:58;;;;;;;;;;;13.50;36.00;12.50;100594.00;;;;5033525;28;20040;-68
2021/12/26 03:08:47;;;;;;;1.50;1.00;;;13.50;36.40;12.50;100607.00;;;;5032925;28;19913;-68
2021/12/26 03:11:33;;;;;;;;;;;13.50;36.00;12.50;100616.00;;;;5014716;28;20051;-68
2021/12/26 03:14:19;;;;;;;1.92;0.90;;;13.50;36.40;12.50;100605.00;;;;5045040;28;19920;-68
2021/12/26 03:17:05;;;;;;;1.35;0.90;;;13.50;35.90;12.50;100610.00;;;;5044638;28;20037;-68
2021/12/26 03:19:51;;;;;;;1.77;0.90;;;13.40;35.90;12.50;100610.00;;;;5022124;28;20043;-68
2021/12/26 03:22:38;;;;;;;1.67;1.08;;;13.40;35.90;12.50;100609.00;;;;5046198;28;20067;-68
2021/12/26 03:25:24;;;;;;;1.88;1.00;;;13.40;35.80;12.50;100606.00;;;;5033668;28;20041;-68
2021/12/26 03:28:11;;;;;;;2.25;1.08;;;13.40;35.90;12.50;100602.00;;;;5049095;28;20072;-68
2021/12/26 03:30:58;;;;;;;1.73;1.20;;;13.40;35.90;12.50;100605.00;;;;5019905;28;20064;-68
2021/12/26 03:33:44;;;;;;;2.10;1.05;;;13.40;35.80;12.50;100606.00;;;;5015639;28;20098;-68
2021/12/26 03:36:31;;;;;;;1.73;1.30;;;13.40;35.80;12.50;100606.00;;;;5043993;28;20101;-68
2021/12/26 03:39:17;;;;;;;1.08;0.85;;;13.40;35.80;12.40;100605.00;;;;5044600;28;20497;-68
2021/12/26 03:42:03;;;;;;;1.80;1.00;;;13.40;35.70;12.50;100606.00;;;;5025202;28;20043;-68
2021/12/26 03:44:50;;;;;;;2.47;1.00;;;13.40;35.70;12.50;100598.00;;;;5043367;28;20411;-68
2021/12/26 03:47:37;;;;;;;1.10;0.80;;;13.40;35.70;12.40;100595.00;;;;5031517;28;20114;-68
2021/12/26 03:50:26;;;;;;;1.38;0.98;;;13.40;35.60;12.40;100601.00;;;;5019558;28;20076;-67
2021/12/26 03:53:13;;;;;;;1.35;0.95;;;13.40;35.60;12.40;100598.00;;;;5047975;28;20049;-68
2021/12/26 03:56:01;;;;;;;0.88;0.80;;;13.40;35.60;12.40;100582.00;;;;5045722;28;20418;-68
2021/12/26 03:58:47;;;;;;;3.15;0.98;;;13.40;35.50;12.40;100575.00;;;;5020006;28;20053;-68
2021/12/26 04:01:33;;;;;;;1.80;1.20;;;13.40;35.50;12.40;100586.00;;;;5046140;28;20041;-68
2021/12/26 04:04:19;;;;;;;1.10;1.00;;;13.40;35.50;12.40;100587.00;;;;5045859;28;20044;-68
2021/12/26 04:07:05;;;;;;;1.15;0.70;;;13.40;35.50;12.40;100589.00;;;;5043336;28;20045;-68
2021/12/26 04:09:52;;;;;;;1.63;1.02;;;13.40;35.40;12.40;100583.00;;;;5046987;28;20486;-68
2021/12/26 04:12:43;;;;;;;2.05;1.35;;;13.30;35.00;12.40;100580.00;;;;5035154;28;20406;-68
2021/12/26 04:15:29;;;;;;;1.13;0.93;;;13.30;34.90;12.40;100581.00;;;;5046042;28;20554;-68
2021/12/26 04:18:15;;;;;;;1.40;0.98;;;13.40;35.10;12.50;100582.00;;;;5032593;28;20051;-67
2021/12/26 04:21:02;;;;;;;1.58;1.35;;;13.30;35.10;12.40;100571.00;;;;5044312;28;20041;-68
2021/12/26 04:23:48;;;;;;;2.50;1.08;;;13.30;35.20;12.50;100577.00;;;;5045067;28;20411;-68
2021/12/26 04:26:34;;;;;;;2.20;0.95;;;13.30;35.20;12.50;100581.00;;;;5044064;28;20521;-68
2021/12/26 04:29:20;;;;;;;1.52;1.02;;;13.30;35.20;12.50;100570.00;;;;5046610;28;20052;-68
2021/12/26 04:32:07;;;;;;;1.10;0.90;;;13.40;35.20;12.50;100573.00;;;;5045110;28;20043;-68
2021/12/26 04:34:53;;;;;;;1.17;0.90;;;13.30;35.20;12.50;100568.00;;;;5029537;28;20045;-68
2021/12/26 04:37:39;;;;;;;2.92;1.10;;;13.30;35.20;12.50;100569.00;;;;5046583;28;20048;-68
2021/12/26 04:40:25;;;;;;;2.00;0.90;;;13.40;35.20;12.50;100564.00;;;;5015387;28;20761;-68
2021/12/26 04:43:12;;;;;;;0.98;0.90;;;13.40;35.20;12.50;100567.00;;;;5047402;28;20460;-68
2021/12/26 04:46:00;;;;;;;1.10;0.80;;;13.40;35.20;12.50;100575.00;;;;5043370;28;20136;-68
2021/12/26 04:48:47;;;;;;;1.55;0.80;;;13.40;35.20;12.50;100573.00;;;;5043265;28;20273;-68
2021/12/26 04:51:33;;;;;;;1.42;0.70;;;13.40;35.20;12.50;100580.00;;;;5044737;28;20430;-68
2021/12/26 04:54:19;;;;;;;1.50;1.00;;;13.40;35.20;12.40;100572.00;;;;5032163;28;20504;-68
2021/12/26 04:57:05;;;;;;;1.30;0.88;;;13.40;35.20;12.40;100577.00;;;;5045095;28;20333;-68
2021/12/26 04:59:52;;;;;;;1.73;0.98;;;13.40;35.20;12.40;100558.00;;;;5028903;28;20036;-68
2021/12/26 05:02:39;;;;;;;1.20;0.90;;;13.40;35.20;12.40;100560.00;;;;5044035;28;20037;-68
2021/12/26 05:05:28;;;;;;;2.30;1.15;;;13.40;35.10;12.40;100549.00;;;;5045659;28;20067;-68
2021/12/26 05:08:14;;;;;;;1.77;1.10;;;13.40;35.20;12.40;100548.00;;;;5018107;28;20055;-68
2021/12/26 05:11:01;;;;;;;1.67;0.93;;;13.30;35.10;12.40;100549.00;;;;5033687;28;20036;-68
2021/12/26 05:13:47;;;;;;;1.55;0.98;;;13.40;35.20;12.40;100553.00;;;;5024455;28;20037;-68
2021/12/26 05:16:33;;;;;;;0.98;0.70;;;13.30;35.10;12.40;100550.00;;;;5030390;28;20049;-68
2021/12/26 05:19:19;;;;;;;1.40;1.00;;;13.30;35.10;12.40;100550.00;;;;5044819;28;20052;-68
2021/12/26 05:22:05;;;;;;;4.32;1.17;;;13.30;35.00;12.40;100556.00;;;;5042423;28;20111;-68
2021/12/26 05:24:52;;;;;;;1.40;0.70;;;13.30;35.10;12.40;100549.00;;;;5036894;28;20056;-68
2021/12/26 05:27:38;;;;;;;1.40;0.80;;;13.30;35.10;12.40;100544.00;;;;5045619;28;20036;-68
2021/12/26 05:30:26;;;;;;;1.15;0.82;;;13.30;35.10;12.40;100540.00;;;;5048023;28;20060;-68
2021/12/26 05:33:12;;;;;;;1.98;0.90;;;13.30;35.10;12.40;100535.00;;;;5034716;28;20043;-68
2021/12/26 05:35:59;;;;;;;1.30;0.90;;;13.30;35.10;12.40;100527.00;;;;5033204;28;20045;-68
2021/12/26 05:38:45;;;;;;;3.15;0.90;;;13.30;35.10;12.40;100524.00;;;;5027504;28;20485;-68
2021/12/26 05:41:32;;;;;;;1.08;0.70;;;13.30;35.20;12.40;100529.00;;;;5036025;28;20045;-68
2021/12/26 05:44:19;;;;;;;1.20;1.00;;;13.30;35.10;12.40;100522.00;;;;5047776;28;20535;-68
2021/12/26 05:47:05;;;;;;;1.75;0.90;;;13.30;35.10;12.40;100521.00;;;;5048159;28;20402;-68
2021/12/26 05:49:52;;;;;;;1.65;0.88;;;13.30;35.10;12.40;100508.00;;;;5034551;28;20395;-68
2021/12/26 05:52:39;;;;;;;1.05;0.80;;;13.30;35.10;12.40;100509.00;;;;5035327;28;20474;-68
2021/12/26 05:55:25;;;;;;;1.65;0.93;;;13.30;35.10;12.40;100510.00;;;;5025692;28;20203;-68
2021/12/26 05:58:11;;;;;;;2.40;0.93;;;13.30;35.00;12.40;100508.00;;;;5048458;28;20114;-67
2021/12/26 06:00:57;;;;;;;1.20;1.00;;;13.30;35.00;12.40;100502.00;;;;5047201;28;20049;-68
2021/12/26 06:03:43;;;;;;;1.17;0.73;;;13.30;35.00;12.40;100503.00;;;;5050709;28;20052;-68
2021/12/26 06:06:29;;;;;;;0.90;0.80;;;13.30;35.00;12.40;100510.00;;;;5034198;28;20049;-68
2021/12/26 06:09:16;;;;;;;0.70;0.70;;;13.30;35.00;12.40;100509.00;;;;5047472;28;20069;-68
2021/12/26 06:12:02;;;;;;;2.53;0.70;;;13.30;35.00;12.30;100504.00;;;;5034603;28;20429;-68
2021/12/26 06:14:48;;;;;;;1.83;1.00;;;13.30;35.00;12.40;100512.00;;;;5046572;28;20044;-68
2021/12/26 06:17:34;;;;;;;1.23;0.93;;;13.30;34.90;12.30;100512.00;;;;5048317;28;20041;-68
2021/12/26 06:20:21;;;;;;;2.10;0.70;;;13.30;34.90;12.40;100522.00;;;;4996224;28;20075;-68
2021/12/26 06:23:07;;;;;;;1.10;0.90;;;13.30;34.90;12.30;100515.00;;;;5048367;28;20071;-68
2021/12/26 06:25:53;;;;;;;1.80;0.88;;;13.30;34.90;12.30;100513.00;;;;5025941;28;20056;-68
2021/12/26 06:28:40;;;;;;;0.88;0.60;;;13.30;34.90;12.30;100509.00;;;;5045722;28;20033;-68
2021/12/26 06:31:26;;;;;;;0.95;0.60;;;13.30;34.90;12.30;100514.00;;;;5046902;28;20453;-68
2021/12/26 06:34:12;;;;;;;1.30;0.80;;;13.30;34.90;12.30;100507.00;;;;5036030;28;20048;-68
2021/12/26 06:36:58;;;;;;;0.90;0.60;;;13.30;34.90;12.30;100504.00;;;;5046554;28;20051;-68
2021/12/26 06:39:44;;;;;;;1.00;0.68;;;13.30;34.90;12.30;100514.00;;;;5045394;28;20116;-68
2021/12/26 06:42:32;;;;;;;0.82;0.73;;;13.30;34.90;12.30;100508.00;;;;5022824;28;20135;-68
2021/12/26 06:45:18;;;;;;;0.98;0.77;;;13.30;34.90;12.30;100506.00;;;;5044493;28;21442;-68
2021/12/26 06:48:06;;;;;;;0.75;0.70;;;13.30;34.90;12.30;100508.00;;;;5045838;28;20033;-68
2021/12/26 06:50:52;;;;;;;;;;;13.30;34.80;12.30;100497.00;;;;5032596;28;20405;-68
2021/12/26 06:53:39;;;;;;;1.27;0.93;;;13.30;35.30;12.30;100496.00;;;;5015173;28;20334;-68
2021/12/26 06:56:25;;;;;;;1.33;0.73;;;13.30;35.00;12.30;100490.00;;;;5044759;28;20033;-68
2021/12/26 06:59:11;;;;;;;1.15;0.70;;;13.30;34.90;12.30;100501.00;;;;4994916;28;20053;-68
2021/12/26 07:01:57;;;;;;;0.75;0.73;;;13.30;34.90;12.30;100493.00;;;;5007599;28;20124;-68
2021/12/26 07:04:43;;;;;;;1.27;0.77;;;13.20;34.90;12.30;100498.00;;;;5006712;28;20558;-68
2021/12/26 07:07:30;;;;;;;2.35;0.93;;;13.30;35.50;12.30;100499.00;;;;5002153;28;20080;-68
2021/12/26 07:10:16;;;;;;;1.98;1.05;;;13.20;34.80;12.30;100497.00;;;;5005197;28;20045;-67
2021/12/26 07:13:03;;;;;;;1.13;0.73;;;13.20;34.80;12.30;100493.00;;;;5004574;28;20034;-68
2021/12/26 07:15:49;;;;;;;1.50;0.82;;;13.20;34.80;12.30;100492.00;;;;5006377;28;20045;-68
2021/12/26 07:18:35;;;;;;;1.38;0.82;;;13.20;34.80;12.30;100493.00;;;;5004715;28;20550;-68
2021/12/26 07:21:21;;;;;;;1.50;0.80;;;13.20;34.90;12.20;100497.00;;;;5003907;28;20562;-68
2021/12/26 07:24:10;;;;;;;2.00;1.05;;;13.20;34.90;12.30;100501.00;;;;5006144;28;20495;-67
2021/12/26 07:26:56;;;;;;;1.20;0.90;;;13.20;34.90;12.30;100503.00;;;;4991817;28;20038;-68
2021/12/26 07:29:43;;;;;;;1.73;1.05;;;13.20;34.90;12.30;100505.00;;;;5003960;28;20041;-68
2021/12/26 07:32:30;;;;;;;2.85;1.23;;;13.20;34.90;12.30;100501.00;;;;5006334;28;20410;-68
2021/12/26 07:35:16;;;;;;;1.15;1.05;;;13.20;34.90;12.20;100503.00;;;;5017405;28;20491;-68
2021/12/26 07:38:02;;;;;;;3.38;0.93;;;13.20;34.90;12.20;100508.00;;;;5003438;28;20053;-68
2021/12/26 07:40:48;;;;;;;1.33;1.00;;;13.20;34.90;12.20;100502.00;;;;5004542;28;20064;-68
2021/12/26 07:43:35;;;;;;;1.42;1.10;;;13.20;34.90;12.20;100509.00;;;;4968353;28;20038;-68
2021/12/26 07:46:21;;;;;;;2.67;0.90;;;13.20;34.90;12.20;100505.00;;;;5003505;28;20399;-67
2021/12/26 07:49:07;;;;;;;2.03;1.25;;;13.20;34.90;12.20;100500.00;;;;4999685;28;20498;-68
2021/12/26 07:51:54;;;;;;;0.88;0.80;;;13.20;34.90;12.20;100505.00;;;;4995962;28;20320;-67
2021/12/26 07:54:40;;;;;;;2.00;1.00;;;13.20;34.90;12.20;100509.00;;;;5002476;28;20530;-67
2021/12/26 07:57:26;;;;;;;1.10;1.00;;;13.20;34.90;12.20;100502.00;;;;5007940;28;20045;-67
2021/12/26 08:00:14;;;;;;;1.15;0.90;;;13.20;34.90;12.20;100507.00;;;;5045288;28;20120;-67
2021/12/26 08:03:03;;;;;;;1.23;0.85;;;13.20;34.90;12.20;100506.00;;;;5024726;28;20087;-67
2021/12/26 08:05:49;;;;;;;1.88;1.25;;;13.20;34.90;12.20;100492.00;;;;5044737;28;20048;-68
2021/12/26 08:08:36;;;;;;;0.88;0.77;;;13.10;34.90;12.20;100501.00;;;;5041115;28;20041;-67
2021/12/26 08:11:23;;;;;;;2.90;1.17;;;13.10;34.90;12.20;100508.00;;;;5041038;28;20572;-68
2021/12/26 08:14:09;;;;;;;3.70;0.80;;;13.10;34.90;12.20;100512.00;;;;5040605;28;20559;-68
2021/12/26 08:16:55;;;;;;;2.30;1.25;;;13.20;34.90;12.30;100508.00;;;;5038011;28;20036;-67
2021/12/26 08:19:41;;;;;;;4.45;1.20;;;13.10;34.80;12.30;100512.00;;;;5045361;28;20481;-68
2021/12/26 08:22:27;;;;;;;1.98;1.15;;;13.20;34.90;12.40;100516.00;;;;5028149;28;20044;-68
2021/12/26 08:25:14;;;;;;;1.40;0.90;;;13.30;34.80;12.40;100510.00;;;;5037520;28;20184;-68
2021/12/26 08:28:00;;;;;;;2.63;0.88;;;13.30;34.70;12.50;100520.00;;;;5009468;28;20126;-68
2021/12/26 08:30:46;;;;;;;2.25;0.90;;;13.30;34.70;12.50;100516.00;;;;5038995;28;20341;-68
2021/12/26 08:33:32;;;;;;;1.60;1.05;;;13.50;34.70;12.50;100519.00;;;;5040326;28;20120;-68
2021/12/26 08:36:19;;;;;;;2.72;1.10;;;13.50;34.60;12.60;100516.00;;;;5038838;28;20124;-68
2021/12/26 08:39:06;;;;;;;2.70;1.10;;;13.50;34.60;12.60;100521.00;;;;5023348;28;20486;-68
2021/12/26 08:41:52;;;;;;;2.10;1.10;;;13.50;34.50;12.60;100519.00;;;;5037278;28;20033;-68
2021/12/26 08:44:39;;;;;;;1.20;0.85;;;13.60;34.50;12.60;100513.00;;;;5042623;28;20040;-68
2021/12/26 08:47:25;;;;;;;1.73;0.90;;;13.60;34.50;12.60;100506.00;;;;5020984;28;20045;-68
2021/12/26 08:50:11;;;;;;;1.27;0.70;;;13.60;34.40;12.70;100514.00;;;;5027287;28;20041;-68
2021/12/26 08:52:57;;;;;;;2.80;1.30;;;13.70;34.40;12.70;100517.00;;;;5044728;28;20029;-68
2021/12/26 08:55:43;;;;;;;2.15;1.27;;;13.70;34.40;12.70;100513.00;;;;5041447;28;20471;-68
2021/12/26 08:58:34;;;;;;;1.25;1.10;;;13.70;34.40;12.70;100517.00;;;;5041364;28;20058;-68
2021/12/26 09:01:20;;;;;;;1.75;0.90;;;13.70;34.40;12.60;100508.00;;;;5030922;28;20098;-68
2021/12/26 09:04:06;;;;;;;2.83;0.90;;;13.70;34.30;12.60;100516.00;;;;5030943;28;20116;-68
2021/12/26 09:06:52;;;;;;;2.38;1.02;;;13.70;34.30;12.50;100508.00;;;;5035747;28;20112;-68
2021/12/26 09:09:38;;;;;;;2.17;1.08;;;13.70;34.30;12.50;100510.00;;;;5032081;28;20047;-68
2021/12/26 09:12:25;;;;;;;1.63;0.82;;;13.60;34.30;12.50;100504.00;;;;5039463;28;20041;-68
2021/12/26 09:15:12;;;;;;;2.47;1.33;;;13.60;34.30;12.50;100513.00;;;;5019065;28;20049;-68
2021/12/26 09:17:59;;;;;;;2.17;1.17;;;13.60;34.30;12.40;100517.00;;;;5031682;28;20109;-68
2021/12/26 09:20:45;;;;;;;1.73;1.15;;;13.60;34.40;12.40;100510.00;;;;5045733;28;20079;-70
2021/12/26 09:23:32;;;;;;;4.68;1.20;;;13.50;34.40;12.40;100523.00;;;;5027062;28;20057;-70
2021/12/26 09:26:18;;;;;;;1.75;1.20;;;13.50;34.40;12.40;100519.00;;;;5026054;28;20126;-70
2021/12/26 09:29:04;;;;;;;1.90;1.27;;;13.50;34.40;12.30;100522.00;;;;5049666;28;20040;-70
2021/12/26 09:31:51;;;;;;;3.25;1.83;;;13.50;34.40;12.30;100518.00;;;;5045724;28;20120;-70
2021/12/26 09:34:38;;;;;;;2.28;1.38;;;13.40;34.50;12.30;100516.00;;;;5018771;28;20053;-70
2021/12/26 09:37:24;;;;;;;2.17;1.00;;;13.40;34.50;12.30;100520.00;;;;5050144;28;20044;-69
2021/12/26 09:40:13;;;;;;;1.92;1.30;;;13.40;34.50;12.30;100517.00;;;;5046518;28;20655;-69
2021/12/26 09:42:59;;;;;;;1.80;1.00;;;13.30;34.50;12.30;100509.00;;;;5014732;28;20044;-74
2021/12/26 09:45:45;;;;;;;1.70;1.20;;;13.30;34.60;12.30;100513.00;;;;5021973;28;20044;-69
2021/12/26 09:48:31;;;;;;;2.25;1.20;;;13.30;34.60;12.30;100517.00;;;;5046962;28;20040;-70
2021/12/26 09:51:17;;;;;;;1.65;1.23;;;13.30;34.70;12.30;100520.00;;;;5047009;28;20450;-69
2021/12/26 09:54:05;;;;;;;2.15;1.25;;;13.30;34.70;12.30;100512.00;;;;5045742;28;20136;-69
2021/12/26 09:56:51;;;;;;;4.30;1.40;;;13.30;34.70;12.20;100514.00;;;;5045557;28;20040;-69
2021/12/26 09:59:37;;;;;;;1.95;1.33;;;13.30;34.70;12.20;100512.00;;;;5043889;28;20298;-69
2021/12/26 10:02:23;;;;;;;2.65;1.40;;;13.30;34.70;12.20;100519.00;;;;5017760;28;20040;-69
2021/12/26 10:05:10;;;;;;;1.90;1.30;;;13.30;34.70;12.20;100501.00;;;;5044412;28;20124;-69
2021/12/26 10:08:06;;;;;;;2.25;1.20;;;13.30;34.80;12.20;100498.00;;;;5041097;28;20072;-69
2021/12/26 10:11:11;;;;;;;2.17;1.35;;;13.30;34.70;12.20;100503.00;;;;5038890;28;20306;-69
2021/12/26 10:14:12;;;;;;;1.30;1.13;;;13.20;34.70;12.20;100491.00;;;;5023931;28;20056;-69
2021/12/26 10:17:23;;;;;;;3.50;1.30;;;13.20;34.80;12.20;100484.00;;;;5040023;28;20048;-69
2021/12/26 10:20:10;;;;;;;5.20;1.58;;;13.20;34.70;12.30;100489.00;;;;5042863;28;20052;-69
2021/12/26 10:23:24;;;;;;;3.08;1.30;;;13.20;34.90;12.30;100477.00;;;;5029822;28;20044;-69
2021/12/26 10:26:21;;;;;;;2.92;1.60;;;13.30;34.90;12.30;100470.00;;;;5020736;28;20053;-78
2021/12/26 10:29:51;;;;;;;1.98;1.23;;;13.30;35.00;12.40;100476.00;;;;5024696;28;20041;-75
2021/12/26 10:32:38;;;;;;;3.05;1.60;;;13.30;35.00;12.40;100479.00;;;;5012627;28;20055;-68
2021/12/26 10:35:26;;;;;;;2.37;1.23;;;13.40;35.00;12.40;100476.00;;;;5017241;28;20546;-68
2021/12/26 10:38:16;;;;;;;2.63;1.65;;;13.40;35.10;12.40;100475.00;;;;5044760;28;20688;-68
2021/12/26 10:41:02;;;;;;;2.28;1.20;;;13.40;35.00;12.40;100467.00;;;;5034558;28;20044;-71
2021/12/26 10:43:48;;;;;;;5.03;1.48;;;13.40;35.00;12.40;100467.00;;;;5043107;28;20266;-69
2021/12/26 10:46:35;;;;;;;3.65;1.27;;;13.40;35.10;12.40;100457.00;;;;4990417;28;20041;-69
2021/12/26 10:49:53;;;;;;;4.40;1.65;;;13.50;35.20;12.40;100456.00;;;;5030171;28;20040;-69
2021/12/26 10:52:50;;;;;;;3.28;1.30;;;13.40;35.10;12.40;100452.00;;;;5037292;28;20151;-69
2021/12/26 10:55:39;;;;;;;3.72;1.02;;;13.40;35.10;12.40;100450.00;;;;5018495;28;20208;-69
2021/12/26 10:58:27;;;;;;;1.80;1.10;;;13.40;35.10;12.40;100447.00;;;;5031032;28;20144;-69
2021/12/26 11:01:15;;;;;;;2.65;1.63;;;13.40;35.10;12.40;100446.00;;;;5045491;28;20052;-69
2021/12/26 11:04:15;;;;;;;2.75;1.70;;;13.40;35.20;12.40;100444.00;;;;5040119;28;20060;-69
2021/12/26 11:07:10;;;;;;;2.25;1.25;;;13.50;35.20;12.40;100439.00;;;;5041990;28;20037;-69
2021/12/26 11:10:10;;;;;;;4.10;1.60;;;13.50;35.30;12.40;100448.00;;;;5030177;28;20079;-69
2021/12/26 11:12:59;;;;;;;2.45;1.50;;;13.50;35.30;12.40;100432.00;;;;5030052;28;20040;-69
2021/12/26 11:15:46;;;;;;;4.13;1.88;;;13.50;35.30;12.40;100437.00;;;;5027217;28;20059;-69
2021/12/26 11:18:34;;;;;;;3.22;1.42;;;13.50;35.30;12.40;100427.00;;;;5033976;28;20051;-69
2021/12/26 11:21:23;;;;;;;3.95;1.70;;;13.50;35.40;12.40;100432.00;;;;5010935;28;20045;-69
2021/12/26 11:28:17;;;;;;;2.70;1.60;;;13.50;35.50;12.40;100417.00;;;;5042008;28;20486;-73
2021/12/26 11:31:25;;;;;;;3.88;1.65;;;13.50;35.50;12.40;100419.00;;;;4995779;28;20839;-69
2021/12/26 11:34:11;;;;;;;2.00;1.45;;;13.50;35.50;12.40;100420.00;;;;5045911;28;20048;-69
2021/12/26 11:36:57;;;;;;;2.10;1.58;;;13.50;35.50;12.50;100405.00;;;;4996248;28;20384;-69
2021/12/26 11:39:44;;;;;;;3.63;1.70;;;13.50;35.60;12.50;100391.00;;;;4996457;28;20041;-69
2021/12/26 11:43:33;;;;;;;3.23;1.30;;;13.50;35.60;12.50;100399.00;;;;5036027;28;20041;-70
2021/12/26 11:46:46;;;;;;;2.47;1.30;;;13.50;35.60;12.50;100400.00;;;;5000784;28;20092;-69
2021/12/26 11:49:46;;;;;;;2.33;1.70;;;13.50;35.60;12.50;100392.00;;;;4993425;28;20432;-69
2021/12/26 11:53:16;;;;;;;2.55;1.60;;;13.50;35.60;12.50;100396.00;;;;5009218;28;20055;-70
2021/12/26 11:56:02;;;;;;;3.47;1.53;;;13.50;35.60;12.50;100398.00;;;;5042277;28;20036;-69
2021/12/26 11:59:21;;;;;;;2.67;1.73;;;13.60;35.70;12.50;100397.00;;;;5043270;28;20052;-70
2021/12/26 12:02:07;;;;;;;5.07;2.03;;;13.50;35.70;12.50;100390.00;;;;5045785;28;20052;-70
2021/12/26 12:05:24;;;;;;;1.90;1.25;;;13.60;35.70;12.50;100386.00;;;;5030557;28;20522;-69
2021/12/26 12:08:30;;;;;;;2.33;1.67;;;13.60;35.80;12.50;100385.00;;;;5042346;28;20127;-70
2021/12/26 12:11:16;;;;;;;3.83;1.80;;;13.60;35.80;12.50;100387.00;;;;5029676;28;20041;-70
2021/12/26 12:14:03;;;;;;;2.53;1.92;;;13.60;35.80;12.50;100382.00;;;;5029115;28;20567;-70
2021/12/26 12:16:52;;;;;;;1.70;1.38;;;13.60;35.90;12.50;100386.00;;;;5042451;28;20048;-70
2021/12/26 12:20:00;;;;;;;3.17;1.80;;;13.60;35.90;12.50;100382.00;;;;5044412;28;20079;-70
2021/12/26 12:23:04;;;;;;;3.35;2.03;;;13.60;35.90;12.50;100385.00;;;;5038868;28;20033;-69
2021/12/26 12:25:52;;;;;;;2.95;1.83;;;13.60;35.90;12.50;100388.00;;;;5044478;28;20102;-69
2021/12/26 12:28:42;;;;;;;3.90;1.65;;;13.60;36.00;12.60;100379.00;;;;5013924;28;20068;-69
2021/12/26 12:31:29;;;;;;;3.28;1.85;;;13.60;36.00;12.60;100382.00;;;;5032860;28;20045;-70